Time;durP1;ratioP1;P1;durP2;ratioP2;P2;SDS_P1;SDS_P2;PMS_P1;PMS_P2;Temp;Humidity;BMP_temperature;BMP_pressure;BME280_temperature;BME280_humidity;BME280_pressure;Samples;Min_cycle;Max_cycle;Signal;HPM_P1;HPM_P2
2023/01/05 00:00:54;;;;;;;5.05;0.60;;;;;;;11.71;92.00;99975.75;5021998;28;20060;-78
2023/01/05 00:03:20;;;;;;;5.00;0.90;;;;;;;11.53;94.62;99969.06;5027095;28;20048;-78
2023/01/05 00:05:45;;;;;;;6.40;0.82;;;;;;;11.29;96.74;99975.66;5023122;28;20037;-78
2023/01/05 00:08:11;;;;;;;4.05;1.02;;;;;;;11.12;98.52;99983.00;5023845;28;20492;-78
2023/01/05 00:24:25;;;;;;;6.57;1.15;;;;;;;10.28;100.00;100020.31;5041026;28;20108;-79
2023/01/05 00:26:50;;;;;;;6.43;0.73;;;;;;;10.19;100.00;100022.16;5038368;28;20113;-80
2023/01/05 00:29:16;;;;;;;6.45;1.33;;;;;;;10.17;100.00;100016.06;5034956;28;20061;-80
2023/01/05 00:31:41;;;;;;;6.57;0.98;;;;;;;10.10;100.00;100012.63;5036147;28;20095;-80
2023/01/05 00:34:07;;;;;;;5.18;0.90;;;;;;;10.08;100.00;100009.97;5051254;28;20421;-80
2023/01/05 00:36:32;;;;;;;6.32;0.80;;;;;;;10.16;100.00;100017.78;5040094;28;20037;-80
2023/01/05 00:38:57;;;;;;;6.13;1.42;;;;;;;10.32;100.00;100015.88;5037282;28;20034;-80
2023/01/05 00:41:24;;;;;;;4.57;1.27;;;;;;;10.48;100.00;100008.66;5042795;28;20085;-80
2023/01/05 00:43:49;;;;;;;4.20;1.05;;;;;;;10.60;100.00;100010.22;5038320;28;20049;-80
2023/01/05 00:46:14;;;;;;;6.13;0.90;;;;;;;10.76;100.00;99995.88;5038326;28;20042;-80
2023/01/05 00:48:40;;;;;;;8.68;1.25;;;;;;;10.82;100.00;100006.38;5045674;28;20044;-81
2023/01/05 00:51:05;;;;;;;4.20;0.82;;;;;;;10.90;100.00;100004.50;5040424;28;20064;-81
2023/01/05 00:53:30;;;;;;;3.55;0.88;;;;;;;10.82;100.00;99987.91;5043423;28;20037;-81
2023/01/05 00:55:57;;;;;;;7.18;1.40;;;;;;;10.90;100.00;99999.22;5040370;28;20182;-81
2023/01/05 00:58:22;;;;;;;8.80;0.93;;;;;;;10.94;99.31;99992.09;5043410;28;20037;-81
2023/01/05 01:00:48;;;;;;;6.78;1.00;;;;;;;11.02;99.10;99991.97;5041971;28;20036;-81
2023/01/05 01:03:13;;;;;;;8.55;1.20;;;;;;;11.09;96.83;99978.63;5057361;28;20033;-81
2023/01/05 01:05:38;;;;;;;5.65;0.80;;;;;;;11.09;95.93;99990.97;5043749;28;20033;-81
2023/01/05 01:08:04;;;;;;;8.00;1.50;;;;;;;11.13;94.61;100001.47;5059192;28;20037;-81
2023/01/05 01:10:29;;;;;;;5.60;1.20;;;;;;;11.22;94.11;100002.22;5040782;28;20034;-81
2023/01/05 01:12:55;;;;;;;5.25;1.48;;;;;;;11.24;92.48;99995.09;5049186;28;20029;-81
2023/01/05 01:15:23;;;;;;;6.90;0.77;;;;;;;11.30;93.00;100010.88;5042034;28;20034;-80
2023/01/05 01:17:48;;;;;;;5.28;0.70;;;;;;;11.27;91.68;99995.94;5057195;28;20017;-81
2023/01/05 01:20:14;;;;;;;9.80;1.63;;;;;;;11.30;91.55;99982.69;5043128;28;20097;-81
2023/01/05 01:22:39;;;;;;;4.90;0.75;;;;;;;11.38;90.54;100007.19;5039197;28;20045;-81
2023/01/05 01:25:06;;;;;;;11.30;0.93;;;;;;;11.33;91.46;100018.75;5063105;28;20069;-81
2023/01/05 01:27:32;;;;;;;5.15;0.80;;;;;;;11.34;90.98;99989.66;5041175;28;20037;-81
2023/01/05 01:29:59;;;;;;;6.90;1.27;;;;;;;11.25;91.86;99995.09;5041307;28;20446;-81
2023/01/05 01:32:25;;;;;;;5.72;0.80;;;;;;;11.25;92.37;100003.03;5041156;28;20097;-81
2023/01/05 01:34:50;;;;;;;6.97;0.60;;;;;;;11.22;93.40;100004.84;5049249;28;20033;-82
2023/01/05 01:37:16;;;;;;;5.65;0.80;;;;;;;11.24;94.83;100001.28;5062115;28;20041;-81
2023/01/05 01:39:46;;;;;;;6.68;1.17;;;;;;;11.16;95.52;99997.88;5056584;28;20044;-81
2023/01/05 01:42:14;;;;;;;7.03;1.15;;;;;;;11.09;96.84;99993.63;5039574;28;20104;-81
2023/01/05 01:44:54;;;;;;;8.70;0.70;;;;;;;11.07;97.76;100008.63;5040355;28;20566;-80
2023/01/05 01:47:46;;;;;;;7.90;1.33;;;;;;;11.00;98.25;99997.25;5037543;28;20034;-81
2023/01/05 01:50:14;;;;;;;7.13;0.90;;;;;;;10.99;99.02;99997.31;5055802;28;20064;-80
2023/01/05 01:52:41;;;;;;;4.80;0.60;;;;;;;10.91;99.85;99982.44;5043924;28;20063;-80
2023/01/05 01:55:08;;;;;;;6.70;0.82;;;;;;;10.88;100.00;99985.16;5031352;28;20030;-80
2023/01/05 01:57:35;;;;;;;7.35;1.10;;;;;;;10.87;100.00;99979.88;5032419;28;20037;-80
2023/01/05 02:00:04;;;;;;;6.40;1.27;;;;;;;10.88;99.94;99982.50;5031955;28;20032;-81
2023/01/05 02:02:31;;;;;;;4.50;0.80;;;;;;;10.90;99.95;99980.72;5032387;28;20190;-80
2023/01/05 02:05:03;;;;;;;5.00;0.73;;;;;;;10.90;99.67;99986.00;5029411;28;20050;-80
2023/01/05 02:07:32;;;;;;;6.70;0.73;;;;;;;10.93;99.02;99975.38;5045406;28;20074;-81
2023/01/05 02:09:59;;;;;;;4.80;0.70;;;;;;;10.94;99.39;100003.53;5043822;28;20503;-80
2023/01/05 02:12:50;;;;;;;5.50;0.80;;;;;;;10.81;100.00;99980.84;5045671;28;20036;-79
2023/01/05 02:15:43;;;;;;;5.65;1.20;;;;;;;10.62;100.00;99959.16;5045242;28;20038;-80
2023/01/05 02:18:26;;;;;;;4.45;1.38;;;;;;;10.49;100.00;99963.75;5044393;28;20033;-79
2023/01/05 02:21:08;;;;;;;5.60;1.40;;;;;;;10.48;100.00;99980.50;5023235;28;20088;-79
2023/01/05 02:24:03;;;;;;;6.07;0.85;;;;;;;10.55;100.00;99961.91;5027472;28;20053;-79
2023/01/05 02:26:58;;;;;;;6.30;1.38;;;;;;;10.60;100.00;99965.34;5029143;28;20038;-79
2023/01/05 02:29:42;;;;;;;8.25;1.02;;;;;;;10.61;100.00;99989.09;5040266;28;20125;-79
2023/01/05 02:32:21;;;;;;;3.65;1.15;;;;;;;10.60;100.00;99981.19;5039043;28;20520;-79
2023/01/05 02:35:06;;;;;;;4.05;1.00;;;;;;;10.62;100.00;99971.50;5021670;28;20042;-79
2023/01/05 02:37:37;;;;;;;5.80;0.95;;;;;;;10.72;100.00;99975.75;5019687;28;20030;-79
2023/01/05 02:40:26;;;;;;;8.32;0.90;;;;;;;10.70;100.00;99998.63;5036879;28;20025;-79
2023/01/05 02:42:54;;;;;;;7.70;1.00;;;;;;;10.43;100.00;99992.88;5043619;28;20033;-80
2023/01/05 02:45:21;;;;;;;6.28;1.40;;;;;;;10.17;100.00;99992.31;5037154;28;20056;-80
2023/01/05 02:47:48;;;;;;;6.18;1.35;;;;;;;10.07;100.00;99971.34;5027723;28;20089;-80
2023/01/05 02:50:23;;;;;;;3.70;0.90;;;;;;;9.98;100.00;99997.84;5050410;28;20038;-80
2023/01/05 02:52:58;;;;;;;5.97;1.38;;;;;;;9.97;100.00;100011.03;5033762;28;20072;-80
2023/01/05 02:55:37;;;;;;;6.30;1.20;;;;;;;9.84;100.00;100042.78;5053949;28;20454;-81
2023/01/05 02:58:12;;;;;;;8.43;1.27;;;;;;;9.60;100.00;100059.72;5046111;28;20112;-80
2023/01/05 03:00:43;;;;;;;4.32;1.13;;;;;;;9.42;100.00;100049.38;5030500;28;20056;-80
2023/01/05 03:03:17;;;;;;;8.50;1.55;;;;;;;9.33;100.00;100017.88;5044370;28;20034;-80
2023/01/05 03:05:58;;;;;;;11.52;1.88;;;;;;;9.26;100.00;100026.69;5051451;28;20452;-81
2023/01/05 03:08:26;;;;;;;6.30;1.10;;;;;;;9.17;100.00;100023.25;5047094;28;20093;-80
2023/01/05 03:13:49;;;;;;;2.97;0.80;;;;;;;9.14;100.00;100012.75;5030124;28;20037;-80
2023/01/05 03:16:26;;;;;;;7.25;0.95;;;;;;;9.08;100.00;100032.97;5043269;28;20572;-80
2023/01/05 03:35:59;;;;;;;10.70;1.52;;;;;;;8.95;100.00;100029.56;5050744;28;20038;-81
2023/01/05 03:38:42;;;;;;;7.35;1.17;;;;;;;8.97;100.00;100048.88;5034120;28;20101;-81
2023/01/05 03:41:11;;;;;;;5.20;1.08;;;;;;;8.94;100.00;100030.47;5045559;28;20036;-80
2023/01/05 03:43:40;;;;;;;6.88;1.73;;;;;;;8.92;100.00;100026.97;5049859;28;20040;-80
2023/01/05 03:46:13;;;;;;;9.25;1.15;;;;;;;8.89;100.00;100011.19;5048025;28;20036;-81
2023/01/05 03:48:39;;;;;;;5.70;1.15;;;;;;;8.90;100.00;100026.09;5034295;28;20025;-81
2023/01/05 03:51:06;;;;;;;5.75;0.85;;;;;;;8.91;100.00;100026.09;5050774;28;20040;-81
2023/01/05 03:53:33;;;;;;;6.60;1.33;;;;;;;8.91;100.00;100030.50;5051808;28;20039;-80
2023/01/05 03:55:59;;;;;;;8.23;1.00;;;;;;;8.94;100.00;100033.09;5031301;28;20105;-81
2023/01/05 03:58:25;;;;;;;6.65;0.90;;;;;;;8.98;100.00;100037.44;5034074;28;20033;-81
2023/01/05 04:00:50;;;;;;;8.50;1.00;;;;;;;9.04;100.00;100060.19;5030637;28;20072;-80
2023/01/05 04:03:19;;;;;;;7.75;1.65;;;;;;;9.06;100.00;100035.63;5044765;28;20039;-80
2023/01/05 04:05:44;;;;;;;11.98;2.00;;;;;;;9.05;100.00;100038.28;5061306;28;20116;-80
2023/01/05 04:08:10;;;;;;;6.88;1.20;;;;;;;9.02;100.00;100056.72;5025794;28;20029;-81
2023/01/05 04:10:36;;;;;;;11.32;1.50;;;;;;;9.03;100.00;100046.16;5043536;28;20107;-81
2023/01/05 04:13:01;;;;;;;13.18;1.98;;;;;;;9.02;100.00;100054.97;5046719;28;20057;-81
2023/01/05 04:15:27;;;;;;;11.63;2.00;;;;;;;9.02;100.00;100041.81;5044899;28;20030;-81
2023/01/05 04:17:53;;;;;;;7.93;1.70;;;;;;;9.02;100.00;100043.56;5028918;28;20037;-81
2023/01/05 04:20:19;;;;;;;9.48;2.10;;;;;;;9.03;100.00;100046.16;5030188;28;20514;-81
2023/01/05 04:22:44;;;;;;;11.60;1.55;;;;;;;9.01;100.00;100037.41;5028660;28;20628;-81
2023/01/05 04:25:10;;;;;;;10.80;1.70;;;;;;;9.06;100.00;100035.63;5032276;28;20120;-81
2023/01/05 04:27:36;;;;;;;10.10;1.15;;;;;;;9.12;100.00;100029.44;5028964;28;20042;-81
2023/01/05 04:30:04;;;;;;;11.38;1.60;;;;;;;9.21;100.00;100034.63;5048828;28;20056;-81
2023/01/05 04:32:30;;;;;;;13.07;1.23;;;;;;;9.26;100.00;100047.75;5047851;28;20462;-82
2023/01/05 04:34:56;;;;;;;9.40;1.65;;;;;;;9.34;100.00;100052.06;5028670;28;20125;-82
2023/01/05 04:37:22;;;;;;;7.07;1.73;;;;;;;9.40;100.00;100044.09;5031395;28;20025;-81
2023/01/05 04:39:47;;;;;;;8.10;1.80;;;;;;;9.45;100.00;100057.22;5045445;28;20037;-82
2023/01/05 04:42:13;;;;;;;6.93;2.25;;;;;;;9.46;100.00;100058.09;5063233;28;20033;-81
2023/01/05 04:44:40;;;;;;;7.60;2.15;;;;;;;9.56;100.00;100047.50;5046803;28;20101;-82
2023/01/05 04:47:05;;;;;;;8.55;1.30;;;;;;;9.56;100.00;100042.22;5046835;28;20068;-81
2023/01/05 04:49:33;;;;;;;7.47;1.27;;;;;;;9.62;100.00;100042.16;5042083;28;20156;-82
2023/01/05 04:51:58;;;;;;;9.05;1.13;;;;;;;9.66;100.00;100049.13;5029288;28;20053;-81
2023/01/05 04:54:24;;;;;;;9.85;1.42;;;;;;;9.68;100.00;100051.75;5047913;28;20030;-82
2023/01/05 04:56:50;;;;;;;3.47;0.93;;;;;;;9.67;100.00;100052.66;5030102;28;20030;-82
2023/01/05 04:59:17;;;;;;;6.45;0.93;;;;;;;9.70;100.00;100055.25;5030908;28;20037;-82
2023/01/05 05:01:42;;;;;;;4.95;1.25;;;;;;;9.71;100.00;100056.13;5045584;28;20176;-82
2023/01/05 05:04:10;;;;;;;3.90;1.20;;;;;;;9.73;100.00;100059.63;5032285;28;20040;-82
2023/01/05 05:06:36;;;;;;;8.20;1.38;;;;;;;9.71;100.00;100056.97;5042324;28;20034;-82
2023/01/05 05:09:01;;;;;;;6.50;1.63;;;;;;;9.70;100.00;100054.38;5037115;28;20485;-82
2023/01/05 05:11:28;;;;;;;9.68;0.82;;;;;;;9.74;100.00;100059.59;5048069;28;20033;-82
2023/01/05 05:13:54;;;;;;;6.07;1.13;;;;;;;9.74;100.00;100056.94;5032163;28;20101;-82
2023/01/05 05:16:21;;;;;;;8.55;1.67;;;;;;;9.74;100.00;100064.84;5046093;28;20034;-82
2023/01/05 05:18:47;;;;;;;11.43;1.52;;;;;;;9.76;100.00;100070.13;5034798;28;20061;-82
2023/01/05 05:21:17;;;;;;;7.45;1.08;;;;;;;9.79;100.00;100059.53;5065181;28;20109;-82
2023/01/05 05:23:42;;;;;;;5.53;1.33;;;;;;;9.77;100.00;100062.22;5035239;28;20576;-82
2023/01/05 05:26:08;;;;;;;6.10;1.42;;;;;;;9.81;100.00;100079.72;5032068;28;20044;-82
2023/01/05 05:28:33;;;;;;;6.20;0.95;;;;;;;9.85;100.00;100072.66;5036423;28;20061;-82
2023/01/05 05:30:59;;;;;;;8.27;1.35;;;;;;;9.91;100.00;100077.88;5031606;28;20048;-82
2023/01/05 05:33:25;;;;;;;7.57;1.52;;;;;;;9.90;100.00;100069.97;5037995;28;20083;-82
2023/01/05 05:35:51;;;;;;;10.75;1.45;;;;;;;9.91;100.00;100072.59;5050057;22;20071;-78
2023/01/05 05:38:16;;;;;;;6.38;1.52;;;;;;;9.97;100.00;100080.44;5051179;28;20048;-77
2023/01/05 05:40:41;;;;;;;7.03;1.73;;;;;;;9.93;100.00;100089.28;5051244;28;20041;-78
2023/01/05 05:43:07;;;;;;;11.30;1.65;;;;;;;9.99;100.00;100078.66;5051253;28;20043;-77
2023/01/05 05:45:32;;;;;;;5.65;1.40;;;;;;;10.03;100.00;100080.38;5050932;28;20036;-78
2023/01/05 05:47:59;;;;;;;5.82;1.20;;;;;;;10.04;100.00;100083.88;5047232;28;20119;-78
2023/01/05 05:50:25;;;;;;;3.88;1.00;;;;;;;9.98;100.00;100086.56;5033171;28;20048;-77
2023/01/05 05:52:50;;;;;;;6.45;1.17;;;;;;;9.97;100.00;100090.09;5033247;28;20650;-77
2023/01/05 05:55:16;;;;;;;6.75;1.15;;;;;;;10.02;99.85;100096.19;5051026;28;20552;-78
2023/01/05 05:57:41;;;;;;;4.68;1.15;;;;;;;9.97;100.00;100092.75;5032984;28;20127;-78
2023/01/05 06:00:07;;;;;;;8.32;1.20;;;;;;;10.02;99.51;100096.19;5050975;28;20040;-77
2023/01/05 06:02:38;;;;;;;;;;;;;;;10.02;100.00;100099.72;5048281;28;20500;-78
2023/01/05 06:05:04;;;;;;;5.40;1.15;;;;;;;10.00;100.00;100093.56;5049209;28;19916;-78
2023/01/05 06:07:30;;;;;;;10.13;1.98;;;;;;;10.03;100.00;100112.03;5050330;28;20036;-78
2023/01/05 06:09:55;;;;;;;5.97;1.15;;;;;;;9.89;100.00;100103.38;5050948;28;20045;-77
2023/01/05 06:12:20;;;;;;;5.15;1.08;;;;;;;9.73;100.00;100105.28;5050923;28;20048;-78
2023/01/05 06:14:46;;;;;;;13.70;2.80;;;;;;;9.60;100.00;100115.06;5033125;28;20041;-77
2023/01/05 06:17:11;;;;;;;8.38;1.42;;;;;;;9.60;100.00;100098.38;5032713;28;20044;-77
2023/01/05 06:19:36;;;;;;;11.02;1.52;;;;;;;9.61;100.00;100100.97;5050865;28;20045;-78
2023/01/05 06:22:02;;;;;;;9.52;1.42;;;;;;;9.64;100.00;100108.88;5048269;28;20040;-78
2023/01/05 06:24:27;;;;;;;6.15;1.10;;;;;;;9.68;100.00;100135.19;5050651;28;20028;-77
2023/01/05 06:26:52;;;;;;;8.45;1.75;;;;;;;9.53;100.00;100115.13;5050382;28;20542;-77
2023/01/05 06:29:18;;;;;;;7.32;1.60;;;;;;;9.41;100.00;100113.47;5050707;28;20033;-77
2023/01/05 06:31:43;;;;;;;7.35;1.05;;;;;;;9.27;100.00;100124.09;5052034;28;20587;-77
2023/01/05 06:34:08;;;;;;;7.00;1.73;;;;;;;9.22;100.00;100123.25;5054795;28;20060;-77
2023/01/05 06:36:34;;;;;;;5.03;1.60;;;;;;;9.23;100.00;100143.44;5054100;28;20060;-77
2023/01/05 06:38:59;;;;;;;5.10;1.55;;;;;;;9.20;100.00;100118.00;5054570;28;20033;-77
2023/01/05 06:41:24;;;;;;;8.82;1.45;;;;;;;9.18;100.00;100119.78;5054424;28;20446;-77
2023/01/05 06:43:50;;;;;;;12.43;1.73;;;;;;;9.16;100.00;100131.22;5054416;28;20449;-77
2023/01/05 06:46:15;;;;;;;9.85;2.15;;;;;;;9.17;100.00;100104.88;5054025;28;20051;-77
2023/01/05 06:48:40;;;;;;;5.63;1.48;;;;;;;9.27;100.00;100134.63;5054339;28;20033;-77
2023/01/05 06:51:06;;;;;;;8.52;2.00;;;;;;;9.39;100.00;100145.09;5054255;28;20094;-77
2023/01/05 06:53:31;;;;;;;6.50;2.13;;;;;;;9.58;100.00;100122.09;5054276;28;20032;-77
2023/01/05 06:55:56;;;;;;;9.05;1.50;;;;;;;9.67;100.00;100129.06;5053995;28;20043;-78
2023/01/05 06:58:22;;;;;;;9.65;1.52;;;;;;;9.72;100.00;100131.63;5036371;28;20041;-78
2023/01/05 07:00:47;;;;;;;6.38;1.63;;;;;;;9.85;99.85;100126.25;5054409;28;20021;-77
2023/01/05 07:03:13;;;;;;;10.20;1.85;;;;;;;9.88;99.03;100131.50;5027383;28;20499;-77
2023/01/05 07:05:39;;;;;;;7.80;1.25;;;;;;;9.97;98.17;100134.91;5053717;28;20037;-78
2023/01/05 07:08:05;;;;;;;4.45;1.08;;;;;;;9.96;97.82;100141.97;5057271;28;20391;-79
2023/01/05 07:10:30;;;;;;;4.38;1.27;;;;;;;10.03;96.52;100133.13;5063092;28;20029;-79
2023/01/05 07:12:56;;;;;;;6.47;1.27;;;;;;;10.10;95.42;100161.13;5063593;28;20040;-79
2023/01/05 07:15:21;;;;;;;6.88;1.77;;;;;;;10.06;95.59;100151.53;5062632;28;20047;-79
2023/01/05 07:17:47;;;;;;;7.60;1.30;;;;;;;10.08;96.24;100155.00;5053441;28;20073;-79
2023/01/05 07:20:12;;;;;;;5.60;1.15;;;;;;;10.00;96.93;100162.13;5063408;28;20047;-79
2023/01/05 07:22:37;;;;;;;7.22;1.85;;;;;;;9.84;99.98;100149.97;5063254;28;20040;-78
2023/01/05 07:25:03;;;;;;;8.55;1.92;;;;;;;9.66;100.00;100170.31;5061693;28;20388;-78
2023/01/05 07:27:28;;;;;;;9.82;1.98;;;;;;;9.48;100.00;100186.28;5057635;28;20124;-78
2023/01/05 07:29:54;;;;;;;4.43;0.98;;;;;;;9.32;100.00;100174.09;5058017;28;20025;-78
2023/01/05 07:32:19;;;;;;;7.38;1.10;;;;;;;9.23;100.00;100168.91;5056456;28;20056;-78
2023/01/05 07:34:44;;;;;;;9.38;1.80;;;;;;;9.18;100.00;100208.44;5058278;28;20061;-78
2023/01/05 07:37:10;;;;;;;7.13;1.50;;;;;;;9.08;100.00;100198.84;5044618;28;20411;-77
2023/01/05 07:39:35;;;;;;;9.60;1.95;;;;;;;8.98;100.00;100187.47;5055067;28;20033;-78
2023/01/05 07:42:00;;;;;;;9.05;1.55;;;;;;;8.90;100.00;100191.91;5055902;28;20112;-78
2023/01/05 07:44:26;;;;;;;9.75;1.85;;;;;;;8.84;100.00;100195.44;5057267;28;20029;-78
2023/01/05 07:46:51;;;;;;;9.50;2.40;;;;;;;8.84;100.00;100213.84;5057469;28;20507;-78
2023/01/05 07:49:16;;;;;;;6.72;1.30;;;;;;;8.84;100.00;100210.34;5057574;28;20033;-78
2023/01/05 07:51:41;;;;;;;6.63;1.05;;;;;;;8.89;100.00;100205.94;5057456;28;20044;-78
2023/01/05 07:54:07;;;;;;;6.30;1.25;;;;;;;8.93;100.00;100207.66;5059377;28;20032;-78
2023/01/05 07:56:32;;;;;;;9.63;1.30;;;;;;;8.93;100.00;100228.72;5059186;28;20041;-78
2023/01/05 07:58:58;;;;;;;9.75;1.63;;;;;;;9.00;100.00;100209.41;5059046;28;20043;-78
2023/01/05 08:01:23;;;;;;;5.78;1.20;;;;;;;9.02;100.00;100205.00;5059893;28;20106;-78
2023/01/05 08:03:49;;;;;;;7.28;0.88;;;;;;;9.06;100.00;100224.28;5059825;28;20029;-78
2023/01/05 08:06:17;;;;;;;4.68;1.25;;;;;;;9.04;100.00;100220.78;5055873;28;20055;-77
2023/01/05 08:08:42;;;;;;;7.45;1.02;;;;;;;8.94;100.00;100227.88;5054452;28;20044;-77
2023/01/05 08:11:10;;;;;;;5.82;1.17;;;;;;;8.89;100.00;100250.69;5056270;28;20550;-78
2023/01/05 08:16:20;;;;;;;8.55;1.20;;;;;;;8.99;100.00;100255.03;5056139;28;20049;-78
2023/01/05 08:18:45;;;;;;;11.98;1.65;;;;;;;9.12;100.00;100237.44;5058730;28;20037;-78
2023/01/05 08:21:11;;;;;;;4.10;0.90;;;;;;;9.16;100.00;100237.38;5042379;28;20090;-78
2023/01/05 08:23:37;;;;;;;4.25;0.90;;;;;;;9.24;100.00;100239.13;5059836;28;20388;-78
2023/01/05 08:26:09;;;;;;;10.63;1.90;;;;;;;9.27;100.00;100239.97;5042934;28;20045;-79
2023/01/05 08:28:36;;;;;;;1.52;0.65;;;;;;;9.30;100.00;100255.78;5060337;28;20037;-78
2023/01/05 08:31:12;;;;;;;10.50;2.65;;;;;;;9.29;100.00;100256.63;5060135;28;20061;-78
2023/01/05 08:33:37;;;;;;;4.97;1.15;;;;;;;9.32;100.00;100251.34;5040215;28;20041;-78
2023/01/05 08:36:12;;;;;;;8.02;1.30;;;;;;;9.35;100.00;100256.63;5061066;28;20135;-78
2023/01/05 08:38:37;;;;;;;5.55;1.20;;;;;;;9.36;100.00;100266.25;5043635;28;20717;-78
2023/01/05 08:41:03;;;;;;;5.78;0.80;;;;;;;9.40;100.00;100256.56;5061557;28;20037;-79
2023/01/05 08:43:29;;;;;;;7.43;1.02;;;;;;;9.49;100.00;100274.97;5061371;28;20076;-79
2023/01/05 08:45:54;;;;;;;6.82;1.00;;;;;;;9.46;100.00;100287.25;5060884;28;20491;-79
2023/01/05 08:48:20;;;;;;;5.47;0.95;;;;;;;9.41;100.00;100282.91;5061487;28;20095;-78
2023/01/05 08:50:45;;;;;;;9.07;1.55;;;;;;;9.27;100.00;100292.63;5060573;28;20058;-78
2023/01/05 08:53:11;;;;;;;7.80;1.25;;;;;;;9.14;100.00;100288.31;5060945;28;20104;-78
2023/01/05 08:55:36;;;;;;;8.57;1.50;;;;;;;9.09;100.00;100283.09;5059114;28;20060;-78
2023/01/05 08:58:05;;;;;;;3.53;1.08;;;;;;;9.05;100.00;100286.59;5042532;28;20045;-78
2023/01/05 09:00:31;;;;;;;6.00;1.88;;;;;;;9.06;100.00;100305.88;5059483;28;20052;-78
2023/01/05 09:02:56;;;;;;;5.03;0.90;;;;;;;8.97;100.00;100298.91;5060181;28;20029;-78
2023/01/05 09:05:22;;;;;;;7.72;1.08;;;;;;;8.89;100.00;100300.69;5041244;28;20095;-78
2023/01/05 09:07:47;;;;;;;8.02;1.17;;;;;;;8.90;100.00;100308.56;5048758;28;20033;-78
2023/01/05 09:10:12;;;;;;;6.50;0.98;;;;;;;8.88;100.00;100301.56;5060773;28;20044;-78
2023/01/05 09:12:38;;;;;;;6.30;1.08;;;;;;;8.87;100.00;100305.06;5060089;28;20044;-78
2023/01/05 09:15:04;;;;;;;10.57;1.45;;;;;;;8.90;100.00;100320.84;5059643;28;20045;-78
2023/01/05 09:17:31;;;;;;;5.28;1.20;;;;;;;8.90;100.00;100316.47;5040276;28;20096;-78
2023/01/05 09:19:56;;;;;;;8.48;1.52;;;;;;;8.88;100.00;100330.50;5057264;28;20029;-78
2023/01/05 09:22:21;;;;;;;9.65;2.10;;;;;;;8.85;100.00;100338.41;5054836;28;20041;-78
2023/01/05 09:24:47;;;;;;;6.07;1.00;;;;;;;8.83;100.00;100338.44;5056802;28;20021;-78
2023/01/05 09:27:12;;;;;;;4.93;0.90;;;;;;;8.84;100.00;100339.31;5056747;28;20091;-77
2023/01/05 09:29:37;;;;;;;5.40;2.38;;;;;;;8.75;100.00;100359.50;5057067;28;20103;-77
2023/01/05 09:32:04;;;;;;;6.78;1.30;;;;;;;8.71;100.00;100343.72;5058044;28;20423;-78
2023/01/05 09:34:29;;;;;;;10.57;2.28;;;;;;;8.72;100.00;100350.72;5058005;28;20115;-78
2023/01/05 09:36:55;;;;;;;10.48;1.58;;;;;;;8.62;100.00;100360.41;5058381;28;20542;-78
2023/01/05 09:39:20;;;;;;;5.00;0.90;;;;;;;8.56;100.00;100373.53;5058789;28;20038;-76
2023/01/05 09:41:50;;;;;;;7.03;1.52;;;;;;;8.57;100.00;100343.75;5051149;28;20102;-77
2023/01/05 09:44:29;;;;;;;7.40;1.38;;;;;;;8.64;100.00;100342.81;5051725;28;20032;-77
2023/01/05 09:46:59;;;;;;;7.40;1.15;;;;;;;8.71;100.00;100365.63;5049199;28;20040;-77
2023/01/05 09:49:26;;;;;;;7.18;1.23;;;;;;;8.68;100.00;100365.63;5055422;28;20112;-78
2023/01/05 09:52:02;;;;;;;5.82;1.10;;;;;;;8.71;100.00;100347.22;5053392;28;20041;-77
2023/01/05 09:54:30;;;;;;;6.40;1.20;;;;;;;8.77;100.00;100356.84;5031268;28;20033;-77
2023/01/05 09:56:57;;;;;;;9.48;1.27;;;;;;;8.88;100.00;100362.09;5053420;28;20444;-78
2023/01/05 09:59:27;;;;;;;6.30;1.42;;;;;;;8.91;100.00;100362.09;5053957;28;20096;-78
2023/01/05 10:01:57;;;;;;;9.68;1.40;;;;;;;8.96;100.00;100350.69;5037832;28;20040;-78
2023/01/05 10:04:24;;;;;;;8.35;1.73;;;;;;;9.06;100.00;100363.81;5052067;28;20055;-78
2023/01/05 10:06:52;;;;;;;7.35;2.20;;;;;;;9.08;100.00;100365.56;5057216;28;20132;-78
2023/01/05 10:09:27;;;;;;;6.63;1.20;;;;;;;9.20;100.00;100352.38;5060770;28;20048;-78
2023/01/05 10:15:01;;;;;;;7.32;2.17;;;;;;;9.37;100.00;100361.94;5058908;28;20033;-78
2023/01/05 10:17:31;;;;;;;6.70;1.60;;;;;;;9.35;100.00;100347.91;5061151;28;20063;-78
2023/01/05 10:19:56;;;;;;;8.45;3.03;;;;;;;9.46;100.00;100354.03;5060114;28;20029;-78
2023/01/05 10:22:40;;;;;;;6.80;1.38;;;;;;;9.45;100.00;100347.00;5060027;28;20403;-78
2023/01/05 10:25:18;;;;;;;9.48;2.45;;;;;;;9.55;100.00;100355.72;5049534;28;20097;-78
2023/01/05 10:28:05;;;;;;;8.45;1.58;;;;;;;9.57;100.00;100352.22;5061464;28;20057;-78
2023/01/05 10:30:50;;;;;;;6.45;1.50;;;;;;;9.60;100.00;100364.50;5059706;28;20036;-78
2023/01/05 10:33:29;;;;;;;6.10;1.30;;;;;;;9.61;100.00;100366.22;5059421;28;20384;-78
2023/01/05 10:36:30;;;;;;;4.45;0.77;;;;;;;9.50;100.00;100358.38;5043968;28;20067;-78
2023/01/05 10:39:04;;;;;;;8.52;1.42;;;;;;;9.47;100.00;100353.13;5060397;28;20082;-78
2023/01/05 10:41:42;;;;;;;8.52;0.80;;;;;;;9.52;100.00;100364.53;5058222;28;20075;-78
2023/01/05 10:44:45;;;;;;;3.42;0.88;;;;;;;9.55;100.00;100372.41;5061083;28;20128;-78
2023/01/05 10:47:12;;;;;;;8.52;1.63;;;;;;;9.55;100.00;100363.63;5056976;28;20047;-79
2023/01/05 10:49:41;;;;;;;6.13;2.00;;;;;;;9.45;100.00;100370.69;5061006;28;20040;-78
2023/01/05 10:52:13;;;;;;;7.90;2.25;;;;;;;9.40;100.00;100368.06;5061307;28;20035;-78
2023/01/05 10:54:51;;;;;;;7.05;1.83;;;;;;;9.33;100.00;100369.00;5056894;28;20115;-78
2023/01/05 10:57:28;;;;;;;9.80;1.70;;;;;;;9.30;100.00;100365.47;5042391;28;20072;-78
2023/01/05 10:59:55;;;;;;;8.05;1.33;;;;;;;9.41;100.00;100368.97;5056319;28;20048;-79
2023/01/05 11:02:20;;;;;;;7.72;1.33;;;;;;;9.41;100.00;100363.72;5060739;28;20076;-78
2023/01/05 11:04:47;;;;;;;6.45;1.08;;;;;;;9.43;100.00;100362.81;5059828;28;20025;-78
2023/01/05 11:07:13;;;;;;;4.75;0.98;;;;;;;9.53;100.00;100368.91;5059484;28;20032;-78
2023/01/05 11:09:40;;;;;;;5.63;1.08;;;;;;;9.62;100.00;100371.50;5059461;28;20039;-78
2023/01/05 11:12:15;;;;;;;7.47;1.20;;;;;;;9.72;100.00;100374.97;5060434;28;20139;-78
2023/01/05 11:14:43;;;;;;;6.70;1.10;;;;;;;9.66;100.00;100375.84;5060494;28;20045;-78
2023/01/05 11:17:18;;;;;;;5.82;0.90;;;;;;;9.66;100.00;100386.41;5058125;28;20041;-78
2023/01/05 11:19:48;;;;;;;4.03;0.70;;;;;;;9.80;100.00;100383.72;5057314;28;20044;-79
2023/01/05 11:22:34;;;;;;;5.43;0.93;;;;;;;9.81;100.00;100387.22;5026559;28;20025;-79
2023/01/05 11:25:13;;;;;;;7.28;1.85;;;;;;;9.72;100.00;100408.34;5060071;28;20097;-78
2023/01/05 11:27:39;;;;;;;7.30;1.25;;;;;;;9.75;100.00;100417.13;5057415;28;20036;-79
2023/01/05 11:30:13;;;;;;;2.88;0.65;;;;;;;9.73;100.00;100407.47;5056761;28;20025;-79
2023/01/05 11:32:40;;;;;;;2.67;0.70;;;;;;;9.68;100.00;100414.53;5053923;28;20036;-78
2023/01/05 11:35:17;;;;;;;2.33;0.38;;;;;;;9.73;100.00;100444.38;5049864;28;20040;-78
2023/01/05 11:37:44;;;;;;;5.78;1.10;;;;;;;9.82;100.00;100434.66;5087614;23;20097;-80
2023/01/05 11:40:15;;;;;;;7.63;0.98;;;;;;;9.86;100.00;100428.47;5084498;28;20056;-80
2023/01/05 11:42:42;;;;;;;2.92;0.50;;;;;;;9.91;100.00;100423.19;5097475;28;20119;-80
2023/01/05 11:45:38;;;;;;;3.08;0.50;;;;;;;9.79;100.00;100452.25;5084590;28;20080;-80
2023/01/05 11:48:07;;;;;;;4.47;1.00;;;;;;;9.76;100.00;100428.53;5074388;28;20070;-80
2023/01/05 11:50:42;;;;;;;5.47;0.88;;;;;;;9.69;100.00;100448.75;5073654;28;20048;-80
2023/01/05 11:53:39;;;;;;;5.20;0.90;;;;;;;9.57;100.00;100454.97;5071908;28;20036;-80
2023/01/05 11:56:05;;;;;;;3.17;0.73;;;;;;;9.47;100.00;100445.34;5071325;28;20076;-79
2023/01/05 11:58:33;;;;;;;8.18;0.90;;;;;;;9.42;100.00;100449.72;5070931;28;20041;-80
2023/01/05 12:01:24;;;;;;;3.15;0.63;;;;;;;9.37;100.00;100454.13;5064994;28;20040;-80
2023/01/05 12:04:14;;;;;;;5.38;1.10;;;;;;;9.41;100.00;100463.81;5066666;28;20044;-79
2023/01/05 12:06:57;;;;;;;7.35;1.55;;;;;;;9.37;100.00;100468.19;5064914;28;20524;-79
2023/01/05 12:09:30;;;;;;;3.97;0.80;;;;;;;9.35;100.00;100459.44;5073876;28;20036;-79
2023/01/05 12:12:28;;;;;;;4.13;1.17;;;;;;;9.33;100.00;100455.91;5071581;28;20507;-80